Time;durP1;ratioP1;P1;durP2;ratioP2;P2;SDS_P1;SDS_P2;PMS_P1;PMS_P2;Temp;Humidity;BMP_temperature;BMP_pressure;BME280_temperature;BME280_humidity;BME280_pressure;Samples;Min_cycle;Max_cycle;Signal;HPM_P1;HPM_P2
2022/01/26 00:07:48;;;;;;;97.37;46.43;;;-1.80;99.90;;;;;;5052069;28;20083;-72
2022/01/26 00:10:14;;;;;;;100.03;45.43;;;-1.80;99.90;;;;;;5054286;28;20033;-73
2022/01/26 00:12:41;;;;;;;90.27;45.50;;;-1.80;99.90;;;;;;5052918;28;20388;-72
2022/01/26 00:15:07;;;;;;;91.60;44.27;;;-1.80;99.90;;;;;;5044702;28;20120;-65
2022/01/26 00:17:33;;;;;;;87.17;44.17;;;-2.00;99.90;;;;;;5036820;28;20033;-66
2022/01/26 00:20:10;;;;;;;95.83;46.60;;;-1.90;99.90;;;;;;5030497;28;20116;-65
2022/01/26 00:38:40;;;;;;;92.17;47.67;;;-2.10;99.90;;;;;;5040181;28;20128;-64
2022/01/26 00:41:11;;;;;;;94.57;45.80;;;-2.10;99.90;;;;;;5053171;28;20031;-64
2022/01/26 00:43:41;;;;;;;89.27;43.07;;;-2.00;99.90;;;;;;5046657;28;20052;-64
2022/01/26 00:46:08;;;;;;;86.87;43.80;;;-2.00;99.90;;;;;;5035388;28;20037;-64
2022/01/26 00:48:37;;;;;;;94.10;44.50;;;-2.10;99.90;;;;;;5051998;28;20043;-64
2022/01/26 00:51:05;;;;;;;89.53;44.50;;;-2.00;99.90;;;;;;5051851;28;20346;-64
2022/01/26 00:53:37;;;;;;;90.67;43.57;;;-2.00;99.90;;;;;;5034361;28;20488;-64
2022/01/26 00:56:04;;;;;;;96.50;45.00;;;-1.90;99.90;;;;;;5052358;28;20098;-64
2022/01/26 00:58:32;;;;;;;94.43;42.37;;;-1.80;99.90;;;;;;5034266;28;20561;-64
2022/01/26 01:01:00;;;;;;;93.07;43.30;;;-2.00;99.90;;;;;;5050142;28;20021;-64
2022/01/26 01:03:27;;;;;;;93.53;44.43;;;-2.00;99.90;;;;;;5052502;28;20394;-64
2022/01/26 01:06:09;;;;;;;91.90;43.33;;;-2.00;99.90;;;;;;5045658;28;20036;-64
2022/01/26 01:08:35;;;;;;;89.70;43.47;;;-2.00;99.90;;;;;;5025922;28;20034;-64
2022/01/26 01:11:02;;;;;;;102.10;44.83;;;-2.10;99.90;;;;;;5033596;28;20029;-64
2022/01/26 01:13:35;;;;;;;88.23;43.80;;;-1.90;99.90;;;;;;5026002;28;20040;-64
2022/01/26 01:16:03;;;;;;;87.80;43.77;;;-1.90;99.90;;;;;;5047499;28;20013;-65
2022/01/26 01:18:41;;;;;;;93.83;41.63;;;-1.90;99.90;;;;;;5028968;28;20606;-63
2022/01/26 01:34:08;;;;;;;101.27;44.67;;;-2.20;99.90;;;;;;5039283;28;20025;-65
2022/01/26 01:36:37;;;;;;;104.07;48.27;;;-2.10;99.90;;;;;;5036858;28;20465;-64
2022/01/26 01:39:07;;;;;;;109.00;51.30;;;-2.10;99.90;;;;;;5050487;28;20040;-64
2022/01/26 01:41:37;;;;;;;117.90;51.67;;;-2.10;99.90;;;;;;5029245;28;20037;-64
2022/01/26 01:44:04;;;;;;;105.40;49.63;;;-2.00;99.90;;;;;;5039777;28;20428;-65
2022/01/26 01:46:32;;;;;;;103.13;51.77;;;-2.00;99.90;;;;;;5036495;28;20033;-65
2022/01/26 01:48:59;;;;;;;121.00;55.90;;;-2.00;99.90;;;;;;5037623;28;20103;-65
2022/01/26 01:51:30;;;;;;;111.50;53.50;;;-1.90;99.90;;;;;;5046093;28;20025;-64
2022/01/26 01:53:57;;;;;;;116.67;53.97;;;-1.90;99.90;;;;;;5032123;28;20057;-65
2022/01/26 01:56:25;;;;;;;111.10;52.03;;;-1.90;99.90;;;;;;5059727;28;20020;-66
2022/01/26 01:58:57;;;;;;;115.17;52.77;;;-1.80;99.90;;;;;;5069089;28;20071;-66
2022/01/26 02:01:24;;;;;;;109.67;52.20;;;-1.80;99.90;;;;;;5045936;28;20094;-65
2022/01/26 02:03:51;;;;;;;101.33;48.37;;;-1.80;99.90;;;;;;5027826;28;20477;-65
2022/01/26 02:06:17;;;;;;;106.93;51.77;;;-1.90;99.90;;;;;;5026289;28;20033;-64
2022/01/26 02:08:43;;;;;;;109.30;51.77;;;-2.00;99.90;;;;;;5019217;28;20603;-64
2022/01/26 02:11:12;;;;;;;107.23;50.97;;;-2.00;99.90;;;;;;5023018;28;20202;-65
2022/01/26 02:13:52;;;;;;;111.30;52.00;;;-2.00;99.90;;;;;;5047626;28;20029;-64
2022/01/26 02:49:49;;;;;;;119.00;53.63;;;-2.70;99.90;;;;;;5049912;28;20109;-64
2022/01/26 02:55:22;;;;;;;121.77;55.37;;;-2.80;99.90;;;;;;5052099;28;20052;-64
2022/01/26 03:00:25;;;;;;;117.50;53.60;;;-2.70;99.90;;;;;;5046603;28;20385;-66
2022/01/26 03:03:09;;;;;;;120.43;55.60;;;-2.60;99.90;;;;;;5044257;28;20083;-64
2022/01/26 03:05:42;;;;;;;114.97;53.63;;;-2.80;99.90;;;;;;5023689;28;20040;-65
2022/01/26 03:08:08;;;;;;;102.33;48.57;;;-2.70;99.90;;;;;;5041627;28;20032;-67
2022/01/26 03:10:45;;;;;;;110.87;50.97;;;-2.70;99.90;;;;;;5058154;28;20057;-65
2022/01/26 03:13:17;;;;;;;108.27;47.07;;;-2.60;99.90;;;;;;5039675;28;20579;-65
2022/01/26 03:15:52;;;;;;;96.17;44.60;;;-2.60;99.90;;;;;;5053767;28;20473;-65
2022/01/26 03:20:49;;;;;;;103.57;46.20;;;-2.50;99.90;;;;;;5054457;28;20086;-64
2022/01/26 03:36:30;;;;;;;88.17;41.17;;;-2.30;99.90;;;;;;5062189;28;20069;-67
2022/01/26 03:39:08;;;;;;;106.37;48.67;;;-2.40;99.90;;;;;;5049097;28;20029;-66
2022/01/26 03:41:42;;;;;;;113.67;51.83;;;-2.10;99.90;;;;;;5043107;28;20492;-64
2022/01/26 03:44:09;;;;;;;112.57;52.60;;;-2.40;99.90;;;;;;5034789;28;20450;-65
2022/01/26 03:46:36;;;;;;;111.60;49.93;;;-2.40;99.90;;;;;;5034910;28;20108;-65
2022/01/26 03:49:03;;;;;;;110.23;48.67;;;-2.30;99.90;;;;;;5045778;28;20028;-66
2022/01/26 03:51:30;;;;;;;97.13;46.93;;;-2.40;99.90;;;;;;5052381;28;20059;-65
2022/01/26 03:53:56;;;;;;;99.07;47.07;;;-2.50;99.90;;;;;;5055497;28;20029;-66
2022/01/26 03:56:22;;;;;;;98.97;46.47;;;-2.30;99.90;;;;;;5053087;28;21665;-66
2022/01/26 03:58:48;;;;;;;100.70;47.90;;;-2.50;99.90;;;;;;5049530;28;20025;-66
2022/01/26 04:01:15;;;;;;;97.97;49.30;;;-2.50;99.90;;;;;;5018179;28;20021;-66
2022/01/26 04:03:41;;;;;;;109.80;47.33;;;-2.50;99.90;;;;;;5051106;28;20049;-66
2022/01/26 04:06:07;;;;;;;108.00;49.33;;;-2.60;99.90;;;;;;5049530;28;20695;-66
2022/01/26 04:08:34;;;;;;;104.50;46.90;;;-2.60;99.90;;;;;;5058327;28;20469;-66
2022/01/26 04:11:20;;;;;;;101.80;49.30;;;-2.60;99.90;;;;;;5043406;28;20022;-65
2022/01/26 04:13:46;;;;;;;99.23;44.90;;;-2.60;99.90;;;;;;5043556;28;20044;-65
2022/01/26 04:16:12;;;;;;;102.47;47.17;;;-2.50;99.90;;;;;;5046492;28;20043;-65
2022/01/26 04:18:40;;;;;;;107.43;47.63;;;-2.40;99.90;;;;;;5034220;28;20025;-65
2022/01/26 04:24:12;;;;;;;98.73;45.23;;;-2.40;99.90;;;;;;5040019;28;20053;-67
2022/01/26 04:26:46;;;;;;;97.47;45.50;;;-2.10;99.90;;;;;;5042647;28;20083;-66
2022/01/26 04:29:20;;;;;;;87.00;44.13;;;-1.90;99.90;;;;;;5054245;28;20112;-67
2022/01/26 04:31:46;;;;;;;100.93;47.33;;;-1.80;99.90;;;;;;5041852;28;20388;-66
2022/01/26 04:34:13;;;;;;;98.00;48.30;;;-1.80;99.90;;;;;;5045554;28;20388;-65
2022/01/26 04:36:47;;;;;;;106.07;49.97;;;-1.70;99.90;;;;;;5050239;28;20022;-64
2022/01/26 04:39:18;;;;;;;93.83;46.13;;;-1.90;99.90;;;;;;5042307;28;21733;-66
2022/01/26 04:41:52;;;;;;;91.40;44.47;;;-2.10;99.90;;;;;;5022433;28;20423;-66
2022/01/26 04:44:27;;;;;;;100.10;49.17;;;-2.10;99.90;;;;;;5027611;28;20436;-67
2022/01/26 04:46:54;;;;;;;94.97;44.47;;;-2.30;99.90;;;;;;5049965;28;20025;-66
2022/01/26 04:49:20;;;;;;;100.70;48.67;;;-2.30;99.90;;;;;;5027838;28;20037;-64
2022/01/26 04:51:47;;;;;;;102.83;48.13;;;-2.10;99.90;;;;;;5031883;28;20083;-67
2022/01/26 04:54:13;;;;;;;102.20;46.70;;;-2.20;99.90;;;;;;5029870;28;20124;-66
2022/01/26 04:56:58;;;;;;;94.13;46.33;;;-2.00;99.90;;;;;;5029189;28;20052;-65
2022/01/26 04:59:54;;;;;;;102.37;47.00;;;-1.90;99.90;;;;;;5045383;28;20171;-66
2022/01/26 05:02:20;;;;;;;97.50;50.33;;;-2.00;99.90;;;;;;5042976;28;20035;-66
2022/01/26 05:04:46;;;;;;;110.20;48.10;;;-2.00;99.90;;;;;;5041068;28;20052;-68
2022/01/26 05:07:13;;;;;;;105.67;47.33;;;-1.70;99.90;;;;;;5026103;28;20028;-67
2022/01/26 05:09:40;;;;;;;102.70;47.73;;;-1.50;99.90;;;;;;5042729;28;20048;-67
2022/01/26 05:12:07;;;;;;;98.87;44.73;;;-1.40;99.90;;;;;;5025954;28;20037;-66
2022/01/26 05:14:33;;;;;;;97.13;46.10;;;-1.30;99.90;;;;;;5046689;28;20078;-68
2022/01/26 05:16:59;;;;;;;102.73;47.90;;;-1.30;99.90;;;;;;5046445;28;20036;-68
2022/01/26 05:19:25;;;;;;;103.03;46.73;;;-1.40;99.90;;;;;;5047806;28;20803;-68
2022/01/26 05:21:51;;;;;;;97.40;47.10;;;-1.20;99.90;;;;;;5040995;28;20036;-70
2022/01/26 05:24:18;;;;;;;92.60;47.37;;;-1.30;99.90;;;;;;5056272;28;20374;-68
2022/01/26 05:26:44;;;;;;;109.37;51.03;;;-1.10;99.90;;;;;;5031043;28;20040;-69
2022/01/26 05:29:10;;;;;;;97.83;49.27;;;-1.30;99.90;;;;;;5043218;28;20447;-69
2022/01/26 05:31:39;;;;;;;97.37;47.03;;;-1.20;99.90;;;;;;5024821;28;20024;-71
2022/01/26 05:34:24;;;;;;;100.07;48.33;;;-1.10;99.90;;;;;;5050120;28;20032;-67
2022/01/26 05:36:52;;;;;;;98.33;48.60;;;-1.00;99.90;;;;;;5043721;28;20091;-66
2022/01/26 05:39:18;;;;;;;103.63;51.00;;;-0.90;99.90;;;;;;5046011;28;20035;-68
2022/01/26 05:41:44;;;;;;;97.30;48.43;;;-0.80;99.90;;;;;;5050394;28;20025;-70
2022/01/26 05:44:10;;;;;;;97.70;50.20;;;-0.70;99.90;;;;;;5047079;28;20048;-70
2022/01/26 05:46:41;;;;;;;96.57;46.43;;;-0.70;99.90;;;;;;5047831;28;20378;-70
2022/01/26 05:49:08;;;;;;;99.40;48.63;;;-1.00;99.90;;;;;;5034746;28;20032;-68
2022/01/26 05:51:34;;;;;;;98.87;45.37;;;-0.70;99.90;;;;;;5033972;28;20120;-67
2022/01/26 05:54:04;;;;;;;94.73;45.30;;;-0.40;99.90;;;;;;5043017;28;20039;-69
2022/01/26 05:56:30;;;;;;;101.95;47.63;;;-0.50;99.90;;;;;;5052539;28;20499;-67
2022/01/26 05:58:57;;;;;;;100.32;49.42;;;-0.20;99.90;;;;;;5047396;28;20393;-67
2022/01/26 06:01:24;;;;;;;95.35;44.60;;;-0.30;99.90;;;;;;5030259;28;20104;-66
2022/01/26 06:03:50;;;;;;;98.00;46.97;;;-0.20;99.90;;;;;;5034801;28;20044;-69
2022/01/26 06:06:17;;;;;;;120.93;51.30;;;-0.40;99.90;;;;;;5049136;28;20087;-69
2022/01/26 06:08:43;;;;;;;121.37;52.73;;;-0.60;99.90;;;;;;5039179;28;20119;-69
2022/01/26 06:11:09;;;;;;;110.67;51.83;;;-0.60;99.90;;;;;;5050264;28;20025;-69
2022/01/26 06:13:36;;;;;;;107.53;48.90;;;-0.20;99.90;;;;;;5053251;28;20132;-67
2022/01/26 06:16:02;;;;;;;92.10;45.97;;;-0.10;99.90;;;;;;5047734;28;20028;-69
2022/01/26 06:18:28;;;;;;;96.18;46.33;;;0.00;99.90;;;;;;5051335;28;20116;-69
2022/01/26 06:20:55;;;;;;;90.32;45.03;;;-0.10;99.90;;;;;;5049990;28;20118;-68
2022/01/26 06:23:25;;;;;;;98.47;47.17;;;0.10;99.90;;;;;;5034054;28;20031;-69
2022/01/26 06:25:57;;;;;;;103.85;46.90;;;0.30;99.90;;;;;;5044764;28;20071;-68
2022/01/26 06:28:27;;;;;;;119.40;49.53;;;0.20;99.90;;;;;;5046878;28;20024;-67
2022/01/26 06:31:00;;;;;;;119.00;51.13;;;0.10;99.90;;;;;;5050800;28;20052;-68
2022/01/26 06:33:27;;;;;;;105.23;48.23;;;0.10;99.90;;;;;;5049995;28;20028;-68
2022/01/26 06:35:56;;;;;;;91.55;46.65;;;0.00;99.90;;;;;;5048497;28;20021;-67
2022/01/26 06:38:24;;;;;;;93.22;46.20;;;0.10;99.90;;;;;;5031132;28;20048;-68
2022/01/26 06:40:52;;;;;;;102.60;46.17;;;0.50;99.90;;;;;;5034959;28;20028;-67
2022/01/26 06:43:19;;;;;;;104.55;49.28;;;0.80;99.90;;;;;;5033272;28;20077;-67
2022/01/26 06:45:50;;;;;;;108.88;50.08;;;0.50;99.90;;;;;;5027872;28;20025;-67
2022/01/26 06:48:41;;;;;;;112.18;50.55;;;0.30;99.90;;;;;;5045845;28;20024;-68
2022/01/26 06:51:10;;;;;;;111.78;51.17;;;0.50;99.90;;;;;;5025634;28;20017;-68
2022/01/26 06:54:14;;;;;;;116.15;50.88;;;0.80;99.90;;;;;;5049957;28;20037;-68
2022/01/26 06:56:41;;;;;;;107.65;49.38;;;0.80;99.90;;;;;;5043126;28;20090;-68
2022/01/26 06:59:07;;;;;;;100.00;49.17;;;0.70;99.90;;;;;;5053541;28;20096;-69
2022/01/26 07:01:33;;;;;;;108.20;47.85;;;1.10;99.90;;;;;;5045725;28;20079;-67
2022/01/26 07:03:59;;;;;;;102.18;49.75;;;1.20;99.90;;;;;;5027333;28;20113;-68
2022/01/26 07:06:25;;;;;;;103.57;48.15;;;1.30;99.90;;;;;;5048362;28;20510;-68
2022/01/26 07:08:51;;;;;;;98.13;48.15;;;1.20;99.90;;;;;;5050531;28;20104;-66
2022/01/26 07:11:18;;;;;;;108.22;51.30;;;1.30;99.90;;;;;;5054206;28;20025;-68
2022/01/26 07:13:45;;;;;;;105.50;48.30;;;1.40;99.90;;;;;;5029647;28;20025;-68
2022/01/26 07:21:41;;;;;;;107.82;52.58;;;1.60;99.90;;;;;;5047427;28;20063;-68
2022/01/26 07:24:07;;;;;;;112.13;53.30;;;1.50;99.90;;;;;;5033660;28;20025;-69
2022/01/26 07:26:34;;;;;;;109.15;55.60;;;1.50;99.90;;;;;;5049322;28;20029;-70
2022/01/26 07:29:06;;;;;;;117.57;54.05;;;1.20;99.90;;;;;;5050468;28;20393;-69
2022/01/26 07:32:00;;;;;;;120.00;52.08;;;1.40;99.90;;;;;;5052043;28;20041;-70
2022/01/26 07:34:27;;;;;;;107.50;51.65;;;1.60;99.90;;;;;;5036703;28;20119;-69
2022/01/26 07:36:59;;;;;;;116.38;53.35;;;1.70;99.90;;;;;;5041954;28;20467;-67
2022/01/26 07:39:43;;;;;;;107.03;53.42;;;1.60;99.90;;;;;;5031606;28;20372;-68
2022/01/26 07:42:11;;;;;;;107.22;52.97;;;1.40;99.90;;;;;;5028591;28;20072;-67
2022/01/26 07:44:37;;;;;;;109.13;55.45;;;1.50;99.90;;;;;;5045050;28;20041;-66
2022/01/26 07:47:04;;;;;;;112.18;54.45;;;1.60;99.90;;;;;;5049776;28;20054;-67
2022/01/26 07:49:30;;;;;;;104.78;52.92;;;1.70;99.90;;;;;;5045447;28;20037;-66
2022/01/26 07:51:56;;;;;;;111.43;53.95;;;1.70;99.90;;;;;;5050276;28;20056;-67
2022/01/26 07:54:23;;;;;;;108.07;54.97;;;1.80;99.90;;;;;;5050848;28;20036;-67
2022/01/26 07:56:50;;;;;;;105.78;53.67;;;1.80;99.90;;;;;;5049625;28;20075;-68
2022/01/26 07:59:16;;;;;;;105.47;53.03;;;1.60;99.90;;;;;;5050732;28;20025;-67
2022/01/26 08:01:42;;;;;;;118.43;58.28;;;1.70;99.90;;;;;;5048950;28;20017;-68
2022/01/26 08:04:08;;;;;;;106.90;53.40;;;1.70;99.90;;;;;;5027666;28;20025;-68
2022/01/26 08:06:35;;;;;;;108.75;53.30;;;1.80;99.90;;;;;;5044234;28;20091;-66
2022/01/26 08:09:01;;;;;;;117.60;53.42;;;2.00;99.90;;;;;;5051596;28;20037;-69
2022/01/26 08:11:27;;;;;;;103.97;52.58;;;1.80;99.90;;;;;;5032955;28;20040;-68
2022/01/26 08:13:53;;;;;;;126.93;56.80;;;1.90;99.90;;;;;;5029686;28;20031;-68
2022/01/26 08:16:19;;;;;;;113.00;55.22;;;2.00;99.90;;;;;;5050690;28;20020;-71
2022/01/26 08:18:45;;;;;;;103.25;50.60;;;2.10;99.90;;;;;;5030564;28;20055;-70
2022/01/26 08:21:11;;;;;;;102.53;52.85;;;2.00;99.90;;;;;;5048146;28;20016;-66
2022/01/26 08:23:42;;;;;;;102.47;52.40;;;1.90;99.90;;;;;;5046565;28;21086;-67
2022/01/26 08:26:09;;;;;;;105.97;54.10;;;1.90;99.90;;;;;;5032246;28;20032;-68
2022/01/26 08:28:39;;;;;;;116.50;56.25;;;1.90;99.90;;;;;;5048602;28;20028;-68
2022/01/26 08:31:05;;;;;;;109.50;54.60;;;1.90;99.90;;;;;;5053595;28;20376;-67
2022/01/26 08:33:31;;;;;;;101.95;52.92;;;2.00;99.90;;;;;;5049711;28;20025;-68
2022/01/26 08:35:58;;;;;;;113.43;54.65;;;2.20;99.90;;;;;;5050053;28;20055;-69
2022/01/26 08:38:44;;;;;;;114.68;55.00;;;2.10;99.90;;;;;;5051783;28;20021;-68
2022/01/26 08:41:11;;;;;;;107.05;55.85;;;2.10;99.90;;;;;;5033429;28;20078;-68
2022/01/26 08:43:38;;;;;;;106.93;52.40;;;2.20;99.90;;;;;;5038591;28;20498;-69
2022/01/26 08:46:29;;;;;;;111.65;54.92;;;2.20;99.90;;;;;;5052107;28;20380;-67
2022/01/26 08:48:55;;;;;;;106.93;54.42;;;2.30;99.90;;;;;;5052556;28;20041;-68
2022/01/26 08:51:41;;;;;;;102.53;53.80;;;2.20;99.90;;;;;;5051723;28;20037;-69
2022/01/26 08:54:38;;;;;;;117.38;54.42;;;2.10;99.90;;;;;;5046308;28;20117;-70
2022/01/26 08:57:04;;;;;;;104.82;54.50;;;2.10;99.90;;;;;;5045279;28;20028;-69
2022/01/26 08:59:31;;;;;;;113.40;55.78;;;2.20;99.90;;;;;;5031398;28;20037;-68
2022/01/26 09:02:15;;;;;;;104.40;56.58;;;2.20;99.90;;;;;;5049338;28;20025;-68
2022/01/26 09:04:41;;;;;;;113.53;58.22;;;2.20;99.90;;;;;;5025760;28;20163;-68
2022/01/26 09:07:09;;;;;;;126.35;66.18;;;2.30;99.90;;;;;;5049346;28;20087;-70
2022/01/26 09:09:43;;;;;;;124.47;64.97;;;2.30;99.90;;;;;;5050959;28;20040;-69
2022/01/26 09:12:22;;;;;;;129.38;66.25;;;2.20;99.90;;;;;;5024637;28;20036;-68
2022/01/26 09:14:48;;;;;;;125.30;65.35;;;2.30;99.90;;;;;;5040093;28;20033;-67
2022/01/26 09:17:38;;;;;;;130.40;65.70;;;2.30;99.90;;;;;;5035843;28;20024;-66
2022/01/26 09:20:06;;;;;;;120.53;65.40;;;2.20;99.90;;;;;;5051395;28;20032;-67
2022/01/26 09:23:05;;;;;;;128.88;68.78;;;2.20;99.90;;;;;;5043681;28;20021;-67
2022/01/26 09:25:31;;;;;;;137.68;70.30;;;2.10;99.90;;;;;;5056527;28;20036;-66
2022/01/26 09:27:57;;;;;;;138.45;70.32;;;2.20;99.90;;;;;;5052854;28;20037;-68
2022/01/26 09:30:23;;;;;;;133.13;68.13;;;2.20;99.90;;;;;;5046406;28;20047;-65
2022/01/26 09:32:49;;;;;;;135.75;71.22;;;2.30;99.90;;;;;;5050398;28;20062;-68
2022/01/26 09:35:15;;;;;;;133.50;68.65;;;2.30;99.90;;;;;;5040830;28;20033;-66
2022/01/26 09:37:43;;;;;;;137.88;71.38;;;2.20;99.90;;;;;;5047163;28;20039;-66
2022/01/26 09:40:09;;;;;;;133.50;65.80;;;2.20;99.90;;;;;;5028999;28;20460;-67
2022/01/26 09:42:36;;;;;;;129.65;69.57;;;2.20;99.90;;;;;;5042841;28;20040;-66
2022/01/26 09:45:10;;;;;;;131.65;67.97;;;2.20;99.90;;;;;;5023699;28;20095;-67
2022/01/26 09:47:39;;;;;;;128.25;69.88;;;2.20;99.90;;;;;;5045723;28;20049;-68
2022/01/26 09:50:05;;;;;;;133.40;72.80;;;2.20;99.90;;;;;;5022939;28;20063;-66
2022/01/26 09:52:38;;;;;;;136.43;71.20;;;2.30;99.90;;;;;;5024781;28;20079;-67
2022/01/26 09:55:06;;;;;;;139.50;72.25;;;2.20;99.90;;;;;;5028664;28;20032;-66
2022/01/26 09:57:32;;;;;;;140.30;74.22;;;2.30;99.90;;;;;;5024580;28;20116;-68
2022/01/26 09:59:58;;;;;;;139.10;70.30;;;2.30;99.90;;;;;;5036599;28;20031;-68
2022/01/26 10:02:27;;;;;;;130.30;72.75;;;2.10;99.90;;;;;;5046557;28;20496;-68
2022/01/26 10:05:01;;;;;;;131.63;72.88;;;2.20;99.90;;;;;;5057959;28;20029;-67
2022/01/26 10:07:50;;;;;;;142.10;75.30;;;2.10;99.90;;;;;;5025347;28;20079;-67
2022/01/26 10:15:44;;;;;;;137.43;71.75;;;2.20;99.90;;;;;;5053406;28;20113;-69
2022/01/26 10:18:16;;;;;;;142.50;74.50;;;2.20;99.90;;;;;;5044583;28;20021;-68
2022/01/26 10:20:49;;;;;;;144.65;75.05;;;2.10;99.90;;;;;;5030084;28;20508;-66
2022/01/26 10:23:25;;;;;;;135.63;74.50;;;2.10;99.90;;;;;;5045523;28;20377;-67
2022/01/26 10:26:04;;;;;;;141.23;74.53;;;2.10;99.90;;;;;;5031161;28;20381;-66
2022/01/26 10:28:57;;;;;;;148.95;75.78;;;2.00;99.90;;;;;;5026630;28;20033;-66
2022/01/26 10:31:24;;;;;;;140.80;72.25;;;2.00;99.90;;;;;;5048723;28;20025;-67
2022/01/26 10:34:12;;;;;;;127.55;69.82;;;2.20;99.90;;;;;;5047112;28;20036;-66
2022/01/26 10:36:43;;;;;;;145.52;75.00;;;2.10;99.90;;;;;;5035678;28;20025;-66
2022/01/26 10:39:22;;;;;;;141.27;74.05;;;2.10;99.90;;;;;;5048924;28;20261;-66
2022/01/26 10:41:51;;;;;;;133.90;70.63;;;2.10;99.90;;;;;;5037315;28;20390;-69
2022/01/26 10:44:25;;;;;;;140.73;74.72;;;2.10;99.90;;;;;;5036044;28;20574;-68
2022/01/26 10:46:51;;;;;;;143.38;75.28;;;2.20;99.90;;;;;;5053625;28;20108;-68
2022/01/26 10:49:30;;;;;;;135.93;72.47;;;2.20;99.90;;;;;;5053962;28;20464;-68
2022/01/26 10:52:03;;;;;;;143.38;73.82;;;2.10;99.90;;;;;;5048529;28;20417;-66
2022/01/26 10:54:37;;;;;;;134.05;71.82;;;2.00;99.90;;;;;;5053985;28;20028;-67
2022/01/26 10:57:09;;;;;;;142.57;74.43;;;1.90;99.90;;;;;;5056796;28;20046;-67
2022/01/26 10:59:41;;;;;;;147.32;77.15;;;1.80;99.90;;;;;;5033020;28;20025;-67
2022/01/26 11:02:09;;;;;;;142.57;74.43;;;1.80;99.90;;;;;;5048460;28;20443;-68
2022/01/26 11:04:38;;;;;;;147.32;73.40;;;1.80;99.90;;;;;;5034110;28;20033;-68
2022/01/26 11:07:06;;;;;;;142.10;75.72;;;1.80;99.90;;;;;;5049696;28;20025;-67
2022/01/26 11:09:35;;;;;;;132.85;71.82;;;1.70;99.90;;;;;;5033802;28;20401;-68
2022/01/26 11:12:07;;;;;;;146.45;76.78;;;1.60;99.90;;;;;;5055159;28;20031;-66
2022/01/26 11:14:59;;;;;;;136.32;73.97;;;1.50;99.90;;;;;;5050776;28;20033;-68
2022/01/26 11:17:29;;;;;;;135.05;71.22;;;1.50;99.90;;;;;;5053052;28;20483;-69
2022/01/26 11:19:58;;;;;;;156.55;78.82;;;1.40;99.90;;;;;;5030216;28;20029;-69
2022/01/26 11:22:30;;;;;;;144.85;73.03;;;1.40;99.90;;;;;;5033691;28;20503;-67
2022/01/26 11:25:10;;;;;;;139.48;73.28;;;1.40;99.90;;;;;;5050043;28;20096;-68
2022/01/26 11:27:40;;;;;;;138.32;73.65;;;1.30;99.90;;;;;;5051828;28;20025;-66
2022/01/26 11:30:17;;;;;;;132.65;70.05;;;1.30;99.90;;;;;;5049821;28;20037;-67
2022/01/26 11:32:57;;;;;;;142.68;70.97;;;1.20;99.90;;;;;;5051452;28;20029;-71
2022/01/26 11:35:26;;;;;;;134.90;73.43;;;1.10;99.90;;;;;;5049788;28;20025;-68
2022/01/26 11:38:40;;;;;;;139.75;73.35;;;1.00;99.90;;;;;;5032372;28;20056;-66
2022/01/26 11:47:16;;;;;;;133.30;71.30;;;0.90;99.90;;;;;;5034258;28;20060;-64
2022/01/26 11:49:46;;;;;;;137.82;70.55;;;0.90;99.90;;;;;;5039479;28;20040;-64
2022/01/26 11:52:25;;;;;;;135.27;69.15;;;0.90;99.90;;;;;;5032390;28;20049;-66
2022/01/26 11:54:54;;;;;;;137.20;70.75;;;0.80;99.90;;;;;;5030765;28;20029;-64
2022/01/26 11:57:49;;;;;;;131.30;69.80;;;0.60;99.90;;;;;;5008787;28;20032;-65
2022/01/26 12:00:32;;;;;;;133.30;69.20;;;0.60;99.90;;;;;;5028751;28;20029;-67
2022/01/26 12:02:59;;;;;;;144.20;73.88;;;0.40;99.90;;;;;;5012238;28;20032;-67
2022/01/26 12:05:26;;;;;;;150.30;75.32;;;0.50;99.90;;;;;;5018733;28;20026;-68
2022/01/26 12:07:58;;;;;;;145.45;76.63;;;0.40;99.90;;;;;;5010258;28;20025;-66
2022/01/26 12:10:30;;;;;;;143.30;72.70;;;0.40;99.90;;;;;;5016216;28;20469;-66
2022/01/26 12:13:15;;;;;;;145.38;76.72;;;0.40;99.90;;;;;;5030316;28;20146;-67
2022/01/26 12:15:48;;;;;;;141.88;74.38;;;0.40;99.90;;;;;;5008124;28;20465;-67
2022/01/26 12:35:48;;;;;;;157.35;80.00;;;-0.20;99.90;;;;;;5016257;28;20485;-65
2022/01/26 12:38:48;;;;;;;161.90;81.00;;;-0.30;99.90;;;;;;5023682;28;20021;-66
2022/01/26 12:41:24;;;;;;;150.77;80.40;;;-0.30;99.90;;;;;;5019046;28;20060;-65
2022/01/26 12:43:56;;;;;;;160.60;80.05;;;-0.40;99.90;;;;;;5019117;28;20044;-66
2022/01/26 12:46:29;;;;;;;149.55;77.75;;;-0.40;99.90;;;;;;5046498;28;20024;-66
2022/01/26 12:49:24;;;;;;;152.63;78.78;;;-0.40;99.90;;;;;;5051742;28;20029;-68
2022/01/26 12:51:52;;;;;;;156.18;76.40;;;-0.40;99.90;;;;;;5028961;28;20102;-67
2022/01/26 12:54:19;;;;;;;151.63;77.38;;;-0.50;99.90;;;;;;5038563;28;20029;-66
2022/01/26 12:56:45;;;;;;;138.85;74.20;;;-0.60;99.90;;;;;;5052251;28;20468;-66
2022/01/26 12:59:16;;;;;;;156.07;79.80;;;-0.70;99.90;;;;;;5049421;28;20091;-67
2022/01/26 13:01:45;;;;;;;153.45;77.30;;;-0.70;99.90;;;;;;5050977;28;20503;-66
2022/01/26 13:04:18;;;;;;;156.23;79.20;;;-0.80;99.90;;;;;;5048698;28;20056;-65
2022/01/26 13:06:53;;;;;;;161.60;81.95;;;-0.80;99.90;;;;;;5033325;28;20059;-65
2022/01/26 13:09:28;;;;;;;154.02;79.50;;;-0.90;99.90;;;;;;5047438;28;20037;-65
2022/01/26 13:11:59;;;;;;;139.40;72.50;;;-0.80;99.90;;;;;;5048441;28;20036;-66
2022/01/26 13:14:39;;;;;;;145.48;75.55;;;-0.80;99.90;;;;;;5050682;28;20029;-66
2022/01/26 13:28:12;;;;;;;144.18;74.63;;;-0.70;99.90;;;;;;5052046;28;20031;-64
2022/01/26 13:39:29;;;;;;;157.65;78.03;;;-0.60;99.90;;;;;;5051938;28;20491;-65
2022/01/26 13:49:24;;;;;;;222.48;115.32;;;-0.90;99.90;;;;;;5052638;28;20464;-65
2022/01/26 13:52:05;;;;;;;245.55;128.63;;;-1.00;99.90;;;;;;5051649;28;20040;-64
2022/01/26 14:00:16;;;;;;;241.07;129.75;;;-1.20;99.90;;;;;;5044241;28;20122;-65
2022/01/26 14:02:42;;;;;;;215.80;117.50;;;-1.20;99.90;;;;;;5033446;28;20029;-65
2022/01/26 14:05:09;;;;;;;187.88;97.82;;;-1.20;99.90;;;;;;5052081;28;20056;-65
2022/01/26 14:07:35;;;;;;;199.23;102.45;;;-1.10;99.90;;;;;;5052027;28;20025;-64
2022/01/26 14:10:02;;;;;;;206.55;102.90;;;-1.10;99.90;;;;;;5052149;28;20029;-64
2022/01/26 14:12:33;;;;;;;240.43;122.75;;;-1.20;99.90;;;;;;5054622;28;20033;-64
2022/01/26 14:15:00;;;;;;;224.10;111.95;;;-1.40;99.90;;;;;;5060955;28;20025;-63
2022/01/26 14:17:37;;;;;;;210.53;106.30;;;-1.40;99.90;;;;;;5036978;28;20033;-64
2022/01/26 14:20:53;;;;;;;201.07;104.35;;;-1.50;99.90;;;;;;5056478;28;20028;-64
2022/01/26 14:25:47;;;;;;;172.07;84.07;;;-1.30;99.90;;;;;;5055903;28;20025;-64
2022/01/26 14:28:16;;;;;;;173.33;87.33;;;-1.30;99.90;;;;;;5055689;28;20037;-65
2022/01/26 14:33:46;;;;;;;197.60;98.43;;;-1.60;99.90;;;;;;5055710;28;20033;-65
2022/01/26 14:36:27;;;;;;;186.67;95.83;;;-1.70;99.90;;;;;;5055660;28;20036;-65
2022/01/26 14:56:13;;;;;;;246.10;125.17;;;-1.10;99.90;;;;;;4954702;29;20047;-65
2022/01/26 15:42:12;;;;;;;245.87;123.63;;;-1.30;99.90;;;;;;5054852;28;20032;-65
2022/01/26 15:44:46;;;;;;;247.07;125.63;;;-1.30;99.90;;;;;;5054163;28;20456;-66
2022/01/26 15:50:12;;;;;;;205.40;107.60;;;-1.30;99.90;;;;;;5054716;28;20040;-65
2022/01/26 15:58:13;;;;;;;169.93;84.20;;;-1.40;99.90;;;;;;5054480;28;20079;-65
2022/01/26 16:06:59;;;;;;;141.17;74.90;;;-1.40;99.90;;;;;;5061785;28;20506;-65
2022/01/26 16:37:31;;;;;;;142.80;69.17;;;-1.30;99.90;;;;;;5051186;28;20028;-65
2022/01/26 17:47:02;;;;;;;72.93;37.37;;;-1.50;99.90;;;;;;5052003;28;20159;-66
2022/01/26 17:55:22;;;;;;;76.63;38.10;;;-1.50;99.90;;;;;;5049239;28;20032;-66
2022/01/26 18:16:43;;;;;;;112.53;54.23;;;-2.60;99.90;;;;;;5051354;28;20025;-65
2022/01/26 18:32:55;;;;;;;104.87;49.83;;;-3.10;99.90;;;;;;5050723;28;20388;-65
2022/01/26 18:46:23;;;;;;;100.03;47.80;;;-3.10;99.90;;;;;;5054303;28;20070;-64
2022/01/26 18:49:17;;;;;;;78.13;38.53;;;-3.20;99.90;;;;;;5051642;28;20560;-65
2022/01/26 18:51:49;;;;;;;78.37;38.67;;;-3.20;99.90;;;;;;5032937;28;20488;-65
2022/01/26 18:54:17;;;;;;;71.07;36.67;;;-3.30;99.90;;;;;;5050832;28;20021;-65
2022/01/26 18:56:45;;;;;;;72.40;34.37;;;-3.30;99.90;;;;;;5050902;28;20017;-66
2022/01/26 18:59:12;;;;;;;67.07;32.80;;;-3.40;99.90;;;;;;5054067;28;20039;-64
2022/01/26 19:01:38;;;;;;;75.60;36.57;;;-3.40;99.90;;;;;;5054455;28;20032;-64
2022/01/26 19:04:04;;;;;;;83.97;37.77;;;-3.40;99.90;;;;;;5036722;28;20021;-66
2022/01/26 19:06:31;;;;;;;70.73;33.93;;;-3.50;99.90;;;;;;5054424;28;20469;-65
2022/01/26 19:08:57;;;;;;;72.40;34.27;;;-3.50;99.90;;;;;;5054940;28;20032;-64